createdAt,value
2023-03-29T00:00:44.685Z,2.32
2023-03-29T00:03:14.028Z,2.38
2023-03-29T00:05:42.095Z,2.24
2023-03-29T00:08:14.413Z,2.36
2023-03-29T00:10:42.454Z,2.17
2023-03-29T00:13:10.440Z,2.22
2023-03-29T00:15:38.424Z,2.15
2023-03-29T00:18:06.646Z,2.18
2023-03-29T00:20:34.583Z,2.20
2023-03-29T00:23:02.440Z,2.28
2023-03-29T00:25:30.403Z,2.21
2023-03-29T00:27:58.392Z,2.23
2023-03-29T00:30:26.741Z,2.27
2023-03-29T00:32:54.583Z,2.23
2023-03-29T00:35:22.490Z,2.30
2023-03-29T00:37:51.046Z,2.28
2023-03-29T00:40:19.299Z,2.17
2023-03-29T00:42:47.169Z,2.20
2023-03-29T00:45:25.544Z,2.22
2023-03-29T00:48:01.041Z,2.24
2023-03-29T00:50:33.595Z,2.20
2023-03-29T00:53:02.571Z,2.13
2023-03-29T00:56:01.677Z,2.22
2023-03-29T00:58:51.923Z,2.26
2023-03-29T01:01:28.439Z,2.08
2023-03-29T01:04:20.412Z,2.14
2023-03-29T01:07:23.161Z,2.09
2023-03-29T01:09:56.135Z,2.16
2023-03-29T01:12:32.802Z,2.05
2023-03-29T01:15:10.166Z,2.10
2023-03-29T01:17:40.639Z,2.10
2023-03-29T01:20:15.584Z,2.05
2023-03-29T01:22:43.946Z,2.10
2023-03-29T01:25:35.763Z,2.05
2023-03-29T01:28:12.637Z,2.14
2023-03-29T01:30:42.344Z,2.14
2023-03-29T01:33:23.618Z,2.22
2023-03-29T01:36:01.974Z,2.20
2023-03-29T01:38:48.914Z,2.21
2023-03-29T01:41:17.254Z,2.16
2023-03-29T01:43:50.671Z,2.19
2023-03-29T01:46:45.718Z,2.14
2023-03-29T01:49:23.330Z,2.10
2023-03-29T01:52:00.778Z,2.15
2023-03-29T01:54:44.513Z,1.95
2023-03-29T01:57:14.472Z,1.93
2023-03-29T01:59:44.774Z,2.05
2023-03-29T02:02:16.099Z,2.02
2023-03-29T02:04:50.165Z,2.06
2023-03-29T02:07:24.135Z,2.00
2023-03-29T02:09:53.715Z,2.15
2023-03-29T02:12:22.263Z,2.07
2023-03-29T02:14:50.905Z,2.00
2023-03-29T02:17:25.419Z,2.19
2023-03-29T02:20:32.721Z,2.11
2023-03-29T02:23:08.438Z,1.88
2023-03-29T02:25:37.990Z,1.88
2023-03-29T02:28:07.052Z,2.04
2023-03-29T02:31:04.452Z,2.00
2023-03-29T02:33:45.448Z,2.02
2023-03-29T02:36:22.511Z,2.08
2023-03-29T02:38:52.921Z,2.01
2023-03-29T02:41:23.645Z,2.00
2023-03-29T02:43:53.459Z,2.11
2023-03-29T02:46:22.088Z,2.02
2023-03-29T02:48:52.996Z,2.03
2023-03-29T02:51:24.734Z,2.14
2023-03-29T02:54:21.085Z,2.11
2023-03-29T02:56:56.020Z,2.27
2023-03-29T02:59:24.318Z,2.13
2023-03-29T03:01:52.919Z,2.20
2023-03-29T03:04:21.748Z,2.22
2023-03-29T03:06:50.101Z,2.08
2023-03-29T03:09:18.221Z,1.99
2023-03-29T03:11:48.002Z,2.09
2023-03-29T03:14:16.780Z,2.08
2023-03-29T03:16:44.875Z,2.03
2023-03-29T03:19:13.342Z,2.32
2023-03-29T03:21:41.193Z,2.21
2023-03-29T03:24:09.044Z,2.29
2023-03-29T03:26:38.251Z,2.25
2023-03-29T03:29:07.016Z,2.32
2023-03-29T03:31:54.248Z,2.20
2023-03-29T03:34:41.000Z,2.27
2023-03-29T03:37:12.032Z,2.33
2023-03-29T03:39:40.493Z,2.30
2023-03-29T03:42:10.478Z,2.38
2023-03-29T03:44:44.873Z,2.29
2023-03-29T03:47:32.989Z,2.35
2023-03-29T03:50:14.249Z,2.38
2023-03-29T03:52:42.121Z,2.35
2023-03-29T03:55:11.937Z,2.38
2023-03-29T03:57:47.984Z,2.38
2023-03-29T04:00:22.836Z,2.32
2023-03-29T04:03:06.150Z,2.33
2023-03-29T04:05:42.780Z,2.38
2023-03-29T04:08:12.595Z,2.30
2023-03-29T04:11:00.146Z,2.41
2023-03-29T04:13:35.807Z,2.32
2023-03-29T04:16:24.464Z,2.15
2023-03-29T04:18:53.443Z,2.17
2023-03-29T04:21:23.562Z,2.36
2023-03-29T04:23:51.432Z,2.42
2023-03-29T04:26:19.349Z,2.34
2023-03-29T04:28:50.870Z,2.49
2023-03-29T04:31:28.812Z,2.56
2023-03-29T04:34:35.061Z,2.48
2023-03-29T04:37:10.675Z,2.43
2023-03-29T04:39:39.492Z,2.58
2023-03-29T04:42:08.860Z,2.58
2023-03-29T04:44:36.964Z,2.42
2023-03-29T04:47:08.075Z,2.44
2023-03-29T04:49:47.652Z,2.56
2023-03-29T04:52:24.595Z,2.60
2023-03-29T04:54:53.355Z,2.55
2023-03-29T04:57:39.904Z,2.54
2023-03-29T05:00:27.130Z,2.62
2023-03-29T05:03:18.688Z,2.64
2023-03-29T05:06:07.321Z,2.45
2023-03-29T05:08:39.643Z,2.50
2023-03-29T05:11:25.190Z,2.61
2023-03-29T05:13:57.016Z,2.63
2023-03-29T05:16:30.137Z,2.64
2023-03-29T05:18:59.228Z,2.61
2023-03-29T05:21:28.452Z,2.66
2023-03-29T05:23:59.065Z,2.76
2023-03-29T05:27:05.876Z,2.70
2023-03-29T05:29:36.807Z,2.63
2023-03-29T05:32:28.641Z,2.64
2023-03-29T05:34:56.984Z,2.59
2023-03-29T05:37:24.922Z,2.61
2023-03-29T05:40:06.092Z,2.63
2023-03-29T05:42:38.650Z,2.62
2023-03-29T05:45:10.635Z,2.64
2023-03-29T05:47:39.924Z,2.46
2023-03-29T05:50:09.736Z,2.52
2023-03-29T05:52:38.631Z,2.40
2023-03-29T05:55:08.081Z,2.45
2023-03-29T05:57:37.600Z,2.53
2023-03-29T06:00:25.835Z,2.65
2023-03-29T06:03:17.651Z,2.53
2023-03-29T06:05:56.294Z,2.60
2023-03-29T06:08:26.149Z,2.56
2023-03-29T06:11:08.936Z,2.54
2023-03-29T06:13:57.564Z,2.63
2023-03-29T06:16:26.175Z,2.50
2023-03-29T06:18:54.187Z,2.56
2023-03-29T06:21:22.912Z,2.60
2023-03-29T06:23:51.041Z,2.57
2023-03-29T06:26:20.118Z,2.64
2023-03-29T06:28:51.294Z,2.53
2023-03-29T06:31:21.157Z,2.57
2023-03-29T06:33:51.865Z,2.38
2023-03-29T06:36:34.138Z,2.63
2023-03-29T06:39:08.532Z,2.51
2023-03-29T06:41:57.906Z,2.57
2023-03-29T06:44:50.080Z,2.55
2023-03-29T06:47:24.251Z,2.51
2023-03-29T06:49:52.297Z,2.38
2023-03-29T06:52:30.605Z,2.62
2023-03-29T06:54:58.606Z,2.41
2023-03-29T06:57:27.565Z,2.54
2023-03-29T06:59:55.764Z,2.65
2023-03-29T07:02:27.668Z,2.61
2023-03-29T07:04:59.405Z,2.42
2023-03-29T07:07:53.552Z,2.66
2023-03-29T07:10:38.290Z,2.70
2023-03-29T07:13:26.343Z,2.49
2023-03-29T07:15:55.147Z,2.39
2023-03-29T07:18:33.281Z,2.49
2023-03-29T07:21:01.451Z,2.55
2023-03-29T07:23:29.690Z,2.55
2023-03-29T07:25:58.044Z,2.43
2023-03-29T07:28:27.273Z,2.57
2023-03-29T07:31:11.131Z,2.58
2023-03-29T07:33:46.426Z,2.55
2023-03-29T07:36:15.773Z,2.48
2023-03-29T07:38:44.126Z,2.66
2023-03-29T07:41:17.484Z,2.54
2023-03-29T07:43:47.984Z,2.51
2023-03-29T07:46:19.678Z,2.43
2023-03-29T07:48:47.985Z,2.42
2023-03-29T07:51:16.890Z,2.87
2023-03-29T07:53:46.610Z,2.65
2023-03-29T07:56:44.166Z,2.78
2023-03-29T07:59:30.418Z,2.97
2023-03-29T08:02:11.306Z,2.92
2023-03-29T08:04:42.589Z,2.84
2023-03-29T08:07:31.337Z,2.94
2023-03-29T08:10:22.076Z,3.14
2023-03-29T08:13:01.002Z,2.96
2023-03-29T08:15:39.144Z,3.01
2023-03-29T08:18:11.260Z,2.98
2023-03-29T08:20:39.368Z,3.21
2023-03-29T08:23:07.254Z,3.17
2023-03-29T08:25:53.623Z,3.21
2023-03-29T08:28:21.481Z,3.24
2023-03-29T08:30:52.856Z,3.19
2023-03-29T08:33:21.030Z,3.46
2023-03-29T08:35:57.782Z,3.57
2023-03-29T08:38:30.488Z,3.50
2023-03-29T08:40:58.785Z,3.48
2023-03-29T08:44:00.699Z,3.70
2023-03-29T08:46:51.232Z,3.66
2023-03-29T08:49:31.826Z,3.64
2023-03-29T08:52:06.861Z,3.56
2023-03-29T08:54:46.180Z,3.57
2023-03-29T08:57:30.443Z,3.57
2023-03-29T09:00:07.753Z,3.67
2023-03-29T09:02:42.238Z,3.78
2023-03-29T09:05:35.687Z,3.83
2023-03-29T09:08:38.631Z,3.83
2023-03-29T09:11:25.324Z,3.93
2023-03-29T09:13:59.901Z,3.98
2023-03-29T09:16:31.256Z,4.00
2023-03-29T09:19:33.217Z,4.16
2023-03-29T09:22:24.406Z,4.23
2023-03-29T09:25:07.417Z,4.28
2023-03-29T09:27:50.072Z,4.33
2023-03-29T09:31:03.644Z,4.41
2023-03-29T09:33:42.985Z,4.48
2023-03-29T09:36:32.731Z,4.51
2023-03-29T09:39:01.895Z,4.50
2023-03-29T09:41:49.448Z,4.60
2023-03-29T09:44:30.281Z,4.54
2023-03-29T09:47:20.686Z,4.37
2023-03-29T09:49:57.899Z,4.63
2023-03-29T09:52:26.295Z,4.53
2023-03-29T09:55:06.737Z,4.76
2023-03-29T09:58:01.636Z,4.69
2023-03-29T10:00:34.281Z,4.70
2023-03-29T10:03:02.490Z,4.82
2023-03-29T10:05:41.419Z,4.97
2023-03-29T10:08:23.966Z,4.99
2023-03-29T10:10:52.358Z,4.95
2023-03-29T10:13:27.757Z,4.90
2023-03-29T10:16:02.597Z,5.01
2023-03-29T10:18:32.177Z,4.97
2023-03-29T10:21:03.638Z,5.13
2023-03-29T10:23:37.354Z,5.09
2023-03-29T10:26:11.652Z,4.96
2023-03-29T10:28:40.720Z,4.89
2023-03-29T10:31:19.132Z,5.06
2023-03-29T10:33:53.156Z,5.17
2023-03-29T10:36:22.758Z,5.18
2023-03-29T10:38:54.208Z,5.28
2023-03-29T10:41:23.239Z,5.72
2023-03-29T10:43:51.926Z,5.79
2023-03-29T10:46:29.392Z,6.15
2023-03-29T10:49:10.299Z,6.02
2023-03-29T10:51:38.282Z,5.78
2023-03-29T10:54:13.539Z,5.95
2023-03-29T10:56:51.970Z,6.00
2023-03-29T10:59:27.429Z,5.88
2023-03-29T11:02:13.607Z,5.88
2023-03-29T11:04:44.828Z,6.01
2023-03-29T11:07:22.757Z,6.02
2023-03-29T11:10:02.126Z,5.90
2023-03-29T11:12:41.992Z,5.86
2023-03-29T11:15:39.170Z,5.87
2023-03-29T11:18:34.835Z,5.97
2023-03-29T11:21:08.592Z,6.05
2023-03-29T11:23:53.875Z,6.19
2023-03-29T11:26:36.767Z,6.11
2023-03-29T11:29:22.861Z,6.10
2023-03-29T11:32:16.944Z,6.24
2023-03-29T11:35:03.240Z,6.14
2023-03-29T11:37:34.013Z,6.06
2023-03-29T11:40:37.243Z,6.23
2023-03-29T11:43:31.207Z,6.27
2023-03-29T11:46:02.945Z,6.31
2023-03-29T11:48:55.573Z,6.24
2023-03-29T11:51:28.286Z,6.24
2023-03-29T11:54:10.132Z,6.22
2023-03-29T11:56:45.394Z,6.29
2023-03-29T11:59:23.750Z,6.28
2023-03-29T12:02:25.780Z,6.37
2023-03-29T12:04:56.917Z,6.31
2023-03-29T12:07:54.597Z,6.31
2023-03-29T12:10:33.730Z,6.36
2023-03-29T12:13:07.121Z,6.29
2023-03-29T12:15:52.678Z,6.21
2023-03-29T12:18:26.995Z,6.12
2023-03-29T12:21:05.015Z,6.19
2023-03-29T12:23:35.551Z,6.14
2023-03-29T12:26:17.450Z,6.21
2023-03-29T12:29:08.289Z,6.29
2023-03-29T12:31:58.694Z,6.37
2023-03-29T12:35:00.041Z,6.37
2023-03-29T12:38:29.336Z,6.62
2023-03-29T12:41:38.356Z,6.69
2023-03-29T12:44:25.207Z,6.88
2023-03-29T12:46:58.752Z,7.26
2023-03-29T12:49:31.951Z,7.65
2023-03-29T12:52:03.399Z,8.15
2023-03-29T12:54:33.048Z,8.36
2023-03-29T12:57:27.695Z,8.65
2023-03-29T12:59:56.435Z,8.22
2023-03-29T13:02:35.352Z,8.20
2023-03-29T13:05:05.634Z,8.04
2023-03-29T13:07:47.264Z,7.75
2023-03-29T13:10:35.689Z,7.69
2023-03-29T13:13:18.814Z,7.80
2023-03-29T13:15:47.807Z,8.26
2023-03-29T13:19:03.743Z,8.64
2023-03-29T13:21:46.398Z,8.22
2023-03-29T13:24:36.951Z,8.38
2023-03-29T13:27:42.331Z,8.24
2023-03-29T13:30:55.282Z,8.19
2023-03-29T13:33:42.760Z,7.95
2023-03-29T13:36:22.759Z,8.09
2023-03-29T13:38:53.988Z,8.80
2023-03-29T13:41:43.706Z,8.58
2023-03-29T13:44:45.534Z,8.22
2023-03-29T13:47:19.371Z,7.91
2023-03-29T13:50:04.169Z,7.93
2023-03-29T13:53:03.987Z,7.97
2023-03-29T13:55:38.466Z,7.73
2023-03-29T13:58:13.849Z,7.63
2023-03-29T14:00:48.364Z,7.68
2023-03-29T14:03:19.262Z,7.61
2023-03-29T14:06:01.951Z,7.71
2023-03-29T14:08:37.899Z,7.67
2023-03-29T14:11:08.508Z,7.64
2023-03-29T14:13:37.097Z,7.69
2023-03-29T14:16:09.277Z,7.59
2023-03-29T14:18:40.753Z,7.58
2023-03-29T14:21:12.136Z,7.64
2023-03-29T14:23:45.054Z,7.62
2023-03-29T14:26:18.982Z,7.54
2023-03-29T14:28:50.817Z,7.60
2023-03-29T14:31:19.232Z,7.55
2023-03-29T14:33:54.298Z,7.61
2023-03-29T14:36:23.551Z,7.64
2023-03-29T14:38:57.889Z,7.74
2023-03-29T14:41:31.147Z,7.73
2023-03-29T14:44:00.506Z,7.78
2023-03-29T14:46:29.109Z,7.91
2023-03-29T14:48:57.768Z,7.81
2023-03-29T14:51:30.228Z,7.83
2023-03-29T14:54:01.030Z,7.84
2023-03-29T14:56:32.804Z,7.81
2023-03-29T14:59:03.996Z,7.99
2023-03-29T15:01:32.409Z,8.01
2023-03-29T15:04:09.145Z,8.01
2023-03-29T15:06:42.544Z,8.13
2023-03-29T15:09:20.671Z,8.16
2023-03-29T15:11:56.519Z,8.10
2023-03-29T15:14:28.602Z,8.07
2023-03-29T15:17:06.264Z,8.13
2023-03-29T15:19:34.404Z,8.10
2023-03-29T15:22:11.281Z,7.94
2023-03-29T15:24:45.080Z,7.91
2023-03-29T15:27:18.741Z,8.01
2023-03-29T15:29:47.400Z,7.92
2023-03-29T15:32:33.844Z,7.95
2023-03-29T15:35:05.073Z,8.00
2023-03-29T15:37:33.017Z,7.94
2023-03-29T15:40:05.684Z,7.86
2023-03-29T15:42:34.651Z,7.91
2023-03-29T15:45:07.458Z,7.86
2023-03-29T15:47:35.610Z,7.81
2023-03-29T15:50:04.011Z,7.77
2023-03-29T15:52:31.867Z,7.86
2023-03-29T15:54:59.756Z,7.82
2023-03-29T15:57:27.755Z,7.81
2023-03-29T15:59:55.941Z,7.77
2023-03-29T16:02:25.003Z,7.80
2023-03-29T16:04:53.479Z,7.74
2023-03-29T16:07:21.341Z,7.81
2023-03-29T16:09:49.234Z,7.76
2023-03-29T16:12:17.131Z,7.67
2023-03-29T16:14:45.082Z,7.73
2023-03-29T16:17:14.169Z,7.76
2023-03-29T16:19:42.116Z,7.71
2023-03-29T16:22:10.287Z,7.60
2023-03-29T16:24:38.496Z,7.65
2023-03-29T16:27:06.604Z,7.64
2023-03-29T16:29:34.570Z,7.59
2023-03-29T16:32:04.598Z,7.49
2023-03-29T16:34:35.964Z,7.53
2023-03-29T16:37:03.974Z,7.61
2023-03-29T16:39:31.859Z,7.62
2023-03-29T16:41:59.734Z,7.52
2023-03-29T16:44:27.984Z,7.50
2023-03-29T16:46:58.144Z,7.54
2023-03-29T16:49:26.123Z,7.54
2023-03-29T16:51:53.999Z,7.52
2023-03-29T16:54:21.879Z,7.56
2023-03-29T16:56:50.695Z,7.55
2023-03-29T16:59:18.636Z,7.52
2023-03-29T17:01:46.979Z,7.52
2023-03-29T17:04:14.932Z,7.51
2023-03-29T17:06:43.119Z,7.51
2023-03-29T17:09:11.029Z,7.46
2023-03-29T17:11:39.681Z,7.46
2023-03-29T17:14:08.995Z,7.48
2023-03-29T17:16:37.029Z,7.45
2023-03-29T17:19:04.866Z,7.43
2023-03-29T17:21:33.163Z,7.40
2023-03-29T17:24:01.608Z,7.40
2023-03-29T17:26:29.802Z,7.39
2023-03-29T17:28:58.320Z,7.38
2023-03-29T17:31:26.910Z,7.40
2023-03-29T17:33:55.483Z,7.35
2023-03-29T17:36:25.293Z,7.36
2023-03-29T17:38:54.940Z,7.31
2023-03-29T17:41:23.278Z,7.25
2023-03-29T17:43:52.278Z,7.23
2023-03-29T17:46:23.213Z,7.20
2023-03-29T17:48:52.169Z,7.19
2023-03-29T17:51:21.341Z,7.20
2023-03-29T17:53:50.077Z,7.15
2023-03-29T17:56:22.947Z,7.13
2023-03-29T17:58:51.434Z,7.17
2023-03-29T18:01:21.192Z,7.14
2023-03-29T18:03:49.504Z,7.11
2023-03-29T18:06:20.528Z,7.11
2023-03-29T18:08:49.071Z,7.12
2023-03-29T18:11:22.790Z,7.12
2023-03-29T18:13:52.883Z,7.07
2023-03-29T18:16:22.032Z,7.03
2023-03-29T18:18:50.905Z,7.01
2023-03-29T18:21:18.900Z,7.09
2023-03-29T18:23:48.274Z,7.05
2023-03-29T18:26:16.920Z,7.02
2023-03-29T18:28:48.832Z,7.02
2023-03-29T18:31:16.832Z,7.02
2023-03-29T18:33:44.765Z,7.04
2023-03-29T18:36:13.638Z,7.02
2023-03-29T18:38:43.827Z,7.00
2023-03-29T18:41:13.597Z,6.95
2023-03-29T18:43:43.066Z,6.97
2023-03-29T18:46:11.227Z,6.99
2023-03-29T18:48:39.195Z,7.02
2023-03-29T18:51:11.165Z,7.01
2023-03-29T18:53:41.609Z,6.97
2023-03-29T18:56:09.846Z,6.96
2023-03-29T18:58:37.730Z,6.93
2023-03-29T19:01:06.886Z,6.96
2023-03-29T19:03:35.129Z,6.96
2023-03-29T19:06:04.001Z,6.90
2023-03-29T19:08:32.967Z,6.87
2023-03-29T19:11:02.792Z,6.90
2023-03-29T19:13:30.905Z,6.95
2023-03-29T19:15:58.868Z,6.90
2023-03-29T19:18:27.517Z,6.84
2023-03-29T19:20:55.554Z,6.91
2023-03-29T19:23:28.161Z,6.96
2023-03-29T19:25:58.384Z,6.89
2023-03-29T19:28:27.484Z,6.86
2023-03-29T19:30:56.812Z,6.86
2023-03-29T19:33:24.710Z,6.75
2023-03-29T19:35:52.836Z,6.79
2023-03-29T19:38:21.037Z,6.78
2023-03-29T19:40:50.579Z,6.80
2023-03-29T19:43:20.693Z,6.78
2023-03-29T19:45:50.529Z,6.71
2023-03-29T19:48:23.465Z,6.69
2023-03-29T19:50:52.272Z,6.70
2023-03-29T19:53:21.269Z,6.80
2023-03-29T19:55:49.515Z,6.76
2023-03-29T19:58:17.467Z,6.73
2023-03-29T20:00:45.450Z,6.69
2023-03-29T20:03:14.095Z,6.70
2023-03-29T20:05:42.440Z,6.67
2023-03-29T20:08:10.416Z,6.70
2023-03-29T20:10:38.493Z,6.70
2023-03-29T20:13:06.750Z,6.62
2023-03-29T20:15:35.348Z,6.67
2023-03-29T20:18:03.748Z,6.63
2023-03-29T20:20:31.926Z,6.57
2023-03-29T20:23:05.296Z,6.62
2023-03-29T20:25:35.669Z,6.62
2023-03-29T20:28:04.847Z,6.58
2023-03-29T20:30:32.901Z,6.57
2023-03-29T20:33:01.079Z,6.59
2023-03-29T20:35:29.102Z,6.59
2023-03-29T20:37:57.030Z,6.58
2023-03-29T20:40:24.983Z,6.56
2023-03-29T20:42:54.298Z,6.56
2023-03-29T20:45:22.275Z,6.58
2023-03-29T20:47:57.670Z,6.60
2023-03-29T20:50:30.215Z,6.59
2023-03-29T20:53:03.665Z,6.65
2023-03-29T20:55:33.517Z,6.62
2023-03-29T20:58:02.350Z,6.67
2023-03-29T21:00:32.546Z,6.73
2023-03-29T21:03:00.662Z,6.67
2023-03-29T21:05:32.232Z,6.65
2023-03-29T21:08:01.019Z,6.65
2023-03-29T21:10:29.636Z,6.63
2023-03-29T21:13:00.425Z,6.61
2023-03-29T21:15:30.826Z,6.62
2023-03-29T21:17:59.159Z,6.59
2023-03-29T21:20:27.653Z,6.71
2023-03-29T21:22:55.955Z,6.73
2023-03-29T21:25:23.866Z,6.67
2023-03-29T21:27:51.763Z,6.70
2023-03-29T21:30:19.608Z,6.70
2023-03-29T21:32:47.516Z,6.74
2023-03-29T21:35:15.687Z,6.70
2023-03-29T21:37:43.569Z,6.72
2023-03-29T21:40:12.675Z,6.72
2023-03-29T21:42:40.594Z,6.71
2023-03-29T21:45:09.436Z,6.77
2023-03-29T21:47:37.643Z,6.74
2023-03-29T21:50:06.441Z,6.76
2023-03-29T21:52:34.424Z,6.76
2023-03-29T21:55:02.583Z,6.77
2023-03-29T21:57:30.562Z,6.77
2023-03-29T21:59:58.556Z,6.80
2023-03-29T22:02:26.509Z,6.82
2023-03-29T22:04:54.511Z,6.77
2023-03-29T22:07:26.569Z,6.81
2023-03-29T22:09:54.761Z,6.84
2023-03-29T22:12:22.757Z,6.83
2023-03-29T22:14:50.749Z,6.82
2023-03-29T22:17:19.312Z,6.86
2023-03-29T22:19:47.578Z,6.89
2023-03-29T22:22:16.289Z,6.90
2023-03-29T22:24:44.273Z,6.85
2023-03-29T22:27:12.198Z,6.87
2023-03-29T22:29:40.266Z,6.86
2023-03-29T22:32:08.527Z,6.75
2023-03-29T22:34:36.588Z,6.67
2023-03-29T22:37:05.005Z,6.62
2023-03-29T22:39:35.341Z,6.51
2023-03-29T22:42:03.564Z,6.54
2023-03-29T22:44:31.593Z,6.49
2023-03-29T22:46:59.831Z,6.53
2023-03-29T22:49:27.766Z,6.46
2023-03-29T22:51:55.820Z,6.43
2023-03-29T22:54:23.732Z,6.42
2023-03-29T22:56:51.764Z,6.33
2023-03-29T22:59:20.812Z,6.47
2023-03-29T23:01:49.882Z,6.39
2023-03-29T23:04:18.076Z,6.43
2023-03-29T23:06:46.278Z,6.44
2023-03-29T23:09:16.405Z,6.37
2023-03-29T23:11:44.774Z,6.41
2023-03-29T23:14:12.663Z,6.39
2023-03-29T23:16:40.526Z,6.40
2023-03-29T23:19:08.591Z,6.40
2023-03-29T23:21:37.193Z,6.37
2023-03-29T23:24:06.513Z,6.38
2023-03-29T23:26:35.842Z,6.38
2023-03-29T23:29:04.499Z,6.43
2023-03-29T23:31:33.743Z,6.43
2023-03-29T23:34:03.184Z,6.43
2023-03-29T23:36:31.547Z,6.41
2023-03-29T23:38:59.644Z,6.38
2023-03-29T23:41:28.324Z,6.36
2023-03-29T23:43:57.769Z,6.37
2023-03-29T23:46:26.121Z,6.34
2023-03-29T23:48:54.138Z,6.35
2023-03-29T23:51:28.973Z,6.40
2023-03-29T23:53:57.131Z,6.36
2023-03-29T23:56:25.098Z,6.38
2023-03-29T23:58:53.444Z,6.37
